Main page
METAR-TAF:

METAR-TAF

Airports :

Oil platform

K14-fa-1c, Netherlands

latitude: 53-16-10N, longitude: 3-37-40E, elevation: 28 m

Current weather observation

The report was made 16 minutes ago, at 07:25 UTC
Wind 15 kt from the North/Northeast
Temperature 9°C
Humidity 87%
Pressure 990 hPa
Visibility: 7000 m
Few clouds at a height of 700 ft
Scattered clouds at a height of 800 ft
Broken clouds at a height of 1100 ft
light rain

METAR: EHKV 050725Z AUTO 02015KT 7000 -RA FEW007 SCT008 BKN011 09/07 Q0990

Time: 09:41 (07:41 UTC)


TAF: missing

Weather observations and forecasts of more than 4000 airports (METAR and TAF reports).

The available stations are represented by yellow and red dots on the map.

Hover mouse over dot to see the name of the station.

Then click to see weather observations and forecasts.

To change the map : click on the green buttons with a black cross to zoom in, on the green button with a dash to zoom out, or on the green arrows for adjacent maps.


METAR-TAF: